KBNAKFFL

Guest
Details From KBNA - Nashville Intl
To KFFL - Fairfield Muni
Flight Number -
Tags Generated
Created
Modified
Stats Distance 387 nm / 717 km
Max Altitude 0 ft / 0 m
Waypoints 3
Social Downloads 0
Likes 0
Share VATSIM

Download

Looking for another format? Having issues loading an existing format? Contact us
Advertisement - Login to hide

Notes

Generated

Route

KBNA 13722 KFFL

ID Type Via Altitude Latitude Longitude Leg Dist Tot Dist Heading (true) Name
O KBNA APT - 0 ft / 0 m 36.11768˚ -86.68648˚ - 0 nm - -
13722 FIX - 0 ft / 0 m 40.75662˚ -91.58327˚ 361 nm 361 nm 322° / 319° -
O KFFL APT - 0 ft / 0 m 41.05334˚ -91.98687˚ 25 nm 386 nm 314° / 314° -

Altitude Profile

Advertisement - Login to hide

Weather


0- 5 10 15 20 25 30 35+ Temperature / ° C

Clouds and Precipitation
Forecast for 2017-12-12 06:00 UTC. Updated an hour ago

Ground ~20,000 ft ~40,000 ft Winds

KBNA

Details ICAO KBNA (BNA)
Name Nashville_Intl
Region United States
Timezone America/Chicago (UTC-6.0)
Stats Elevation 598 ft / 182 m (AMSL)
Location 36.123898° -86.677881°
Runways 4
Magnetic Variation 3.840° W

METAR

KBNA 120553Z 33005KT 10SM SCT250 09/M03 A2991 RMK AO2 SLP127 T00941033 10133 20094 401561017 50014

Decode

TAF

KBNA 120521Z 1206/1306 31010KT P6SM BKN200 FM120900 32015KT P6SM BKN035 FM121700 31015G25KT P6SM SCT035 FM122300 30007KT P6SM SKC

Decode

Departure Runways

ID Width Length Bearing (true) Bearing (mag) Surface Threshold Offset Overrun Length
02C 151 ft / 46 m 8,016 ft / 2,443 m 17.91° 21.75° Concrete 0 ft / 0 m 0 ft / 0 m
02L 151 ft / 46 m 7,718 ft / 2,353 m 17.58° 21.42° Concrete 0 ft / 0 m 1,030 ft / 314 m
02R 151 ft / 46 m 8,016 ft / 2,443 m 17.91° 21.75° Concrete 0 ft / 0 m 200 ft / 61 m
13 151 ft / 46 m 11,030 ft / 3,362 m 133.43° 137.27° Asphalt 801 ft / 244 m 249 ft / 76 m
20C 151 ft / 46 m 8,016 ft / 2,443 m 197.92° 201.76° Concrete 0 ft / 0 m 200 ft / 61 m
20L 151 ft / 46 m 8,016 ft / 2,443 m 197.92° 201.76° Concrete 0 ft / 0 m 3 ft / 1 m
20R 151 ft / 46 m 7,718 ft / 2,353 m 197.58° 201.42° Concrete 0 ft / 0 m 194 ft / 59 m
31 151 ft / 46 m 11,030 ft / 3,362 m 313.45° 317.29° Asphalt 741 ft / 226 m 200 ft / 61 m

KFFL

Details ICAO KFFL
Name FAIRFIELD MUNI
Region United States
Timezone America/Chicago (UTC-6.0)
Stats Elevation 799 ft / 244 m (AMSL)
Location 41.053538° -91.982016°
Runways 2
Magnetic Variation 0.414° W

METAR

KFFL 120555Z AUTO 32017G25KT 10SM OVC026 M01/M07 A3013 RMK AO2 PWINO

Decode

TAF

Not found

Destination Runways

ID Width Length Bearing (true) Bearing (mag) Surface Threshold Offset Overrun Length
08 165 ft / 50 m 2,445 ft / 745 m 86.43° 86.84° Dirt 0 ft / 0 m 0 ft / 0 m
18 75 ft / 23 m 4,007 ft / 1,221 m 179.64° 180.05° Asphalt 0 ft / 0 m 0 ft / 0 m
26 165 ft / 50 m 2,445 ft / 745 m 266.43° 266.84° Dirt 0 ft / 0 m 0 ft / 0 m
36 75 ft / 23 m 4,007 ft / 1,221 m 359.64° 0.05° Asphalt 0 ft / 0 m 0 ft / 0 m